sensor_id;sensor_type;location;lat;lon;timestamp;P1;durP1;ratioP1;P2;durP2;ratioP2
71435;SDS011;59251;51.326;12.370;2022-10-31T00:01:24;13.20;;;5.82;;
71435;SDS011;59251;51.326;12.370;2022-10-31T00:03:52;12.43;;;5.63;;
71435;SDS011;59251;51.326;12.370;2022-10-31T00:06:18;17.95;;;5.45;;
71435;SDS011;59251;51.326;12.370;2022-10-31T00:08:44;15.63;;;5.80;;
71435;SDS011;59251;51.326;12.370;2022-10-31T00:11:10;14.20;;;5.77;;
71435;SDS011;59251;51.326;12.370;2022-10-31T00:13:36;16.42;;;5.32;;
71435;SDS011;59251;51.326;12.370;2022-10-31T00:16:01;15.40;;;5.03;;
71435;SDS011;59251;51.326;12.370;2022-10-31T00:18:27;13.93;;;5.10;;
71435;SDS011;59251;51.326;12.370;2022-10-31T00:21:02;13.67;;;5.33;;
71435;SDS011;59251;51.326;12.370;2022-10-31T00:23:29;12.73;;;5.03;;
71435;SDS011;59251;51.326;12.370;2022-10-31T00:25:59;11.10;;;4.78;;
71435;SDS011;59251;51.326;12.370;2022-10-31T00:28:28;14.65;;;4.50;;
71435;SDS011;59251;51.326;12.370;2022-10-31T00:30:57;11.80;;;4.88;;
71435;SDS011;59251;51.326;12.370;2022-10-31T00:33:23;12.73;;;4.80;;
71435;SDS011;59251;51.326;12.370;2022-10-31T00:35:49;12.18;;;4.60;;
71435;SDS011;59251;51.326;12.370;2022-10-31T00:38:15;16.75;;;5.32;;
71435;SDS011;59251;51.326;12.370;2022-10-31T00:40:41;13.60;;;4.80;;
71435;SDS011;59251;51.326;12.370;2022-10-31T00:43:06;12.63;;;4.65;;
71435;SDS011;59251;51.326;12.370;2022-10-31T00:45:31;13.17;;;4.77;;
71435;SDS011;59251;51.326;12.370;2022-10-31T00:47:57;14.33;;;5.10;;
71435;SDS011;59251;51.326;12.370;2022-10-31T00:50:22;12.33;;;4.60;;
71435;SDS011;59251;51.326;12.370;2022-10-31T00:52:47;12.67;;;4.83;;
71435;SDS011;59251;51.326;12.370;2022-10-31T00:55:13;15.70;;;4.77;;
71435;SDS011;59251;51.326;12.370;2022-10-31T00:57:38;12.03;;;4.43;;
71435;SDS011;59251;51.326;12.370;2022-10-31T01:00:04;12.45;;;5.05;;
71435;SDS011;59251;51.326;12.370;2022-10-31T01:02:30;14.80;;;4.33;;
71435;SDS011;59251;51.326;12.370;2022-10-31T01:04:55;9.82;;;4.93;;
71435;SDS011;59251;51.326;12.370;2022-10-31T01:07:20;12.75;;;4.93;;
71435;SDS011;59251;51.326;12.370;2022-10-31T01:09:46;11.90;;;5.03;;
71435;SDS011;59251;51.326;12.370;2022-10-31T01:12:11;12.67;;;4.63;;
71435;SDS011;59251;51.326;12.370;2022-10-31T01:14:36;13.27;;;4.30;;
71435;SDS011;59251;51.326;12.370;2022-10-31T01:17:02;10.87;;;4.87;;
71435;SDS011;59251;51.326;12.370;2022-10-31T01:19:27;13.53;;;5.23;;
71435;SDS011;59251;51.326;12.370;2022-10-31T01:21:55;15.07;;;4.67;;
71435;SDS011;59251;51.326;12.370;2022-10-31T01:24:21;12.93;;;4.97;;
71435;SDS011;59251;51.326;12.370;2022-10-31T01:26:46;12.70;;;4.53;;
71435;SDS011;59251;51.326;12.370;2022-10-31T01:29:11;11.55;;;4.72;;
71435;SDS011;59251;51.326;12.370;2022-10-31T01:31:37;12.37;;;4.63;;
71435;SDS011;59251;51.326;12.370;2022-10-31T01:34:04;13.50;;;5.13;;
71435;SDS011;59251;51.326;12.370;2022-10-31T01:39:00;11.55;;;4.88;;
71435;SDS011;59251;51.326;12.370;2022-10-31T01:41:28;14.40;;;5.13;;
71435;SDS011;59251;51.326;12.370;2022-10-31T01:44:00;11.88;;;5.18;;
71435;SDS011;59251;51.326;12.370;2022-10-31T01:46:32;14.02;;;5.05;;
71435;SDS011;59251;51.326;12.370;2022-10-31T01:49:09;11.23;;;5.05;;
71435;SDS011;59251;51.326;12.370;2022-10-31T01:51:44;13.07;;;5.28;;
71435;SDS011;59251;51.326;12.370;2022-10-31T01:54:13;13.43;;;5.22;;
71435;SDS011;59251;51.326;12.370;2022-10-31T01:56:42;13.13;;;4.70;;
71435;SDS011;59251;51.326;12.370;2022-10-31T01:59:12;17.42;;;4.97;;
71435;SDS011;59251;51.326;12.370;2022-10-31T02:01:40;13.35;;;5.00;;
71435;SDS011;59251;51.326;12.370;2022-10-31T02:04:06;11.95;;;4.53;;
71435;SDS011;59251;51.326;12.370;2022-10-31T02:06:34;13.55;;;5.22;;
71435;SDS011;59251;51.326;12.370;2022-10-31T02:09:03;14.60;;;5.97;;
71435;SDS011;59251;51.326;12.370;2022-10-31T02:11:30;14.35;;;5.13;;
71435;SDS011;59251;51.326;12.370;2022-10-31T02:13:57;14.55;;;5.65;;
71435;SDS011;59251;51.326;12.370;2022-10-31T02:16:25;15.10;;;5.10;;
71435;SDS011;59251;51.326;12.370;2022-10-31T02:18:50;12.95;;;5.22;;
71435;SDS011;59251;51.326;12.370;2022-10-31T02:35:31;15.20;;;5.10;;
71435;SDS011;59251;51.326;12.370;2022-10-31T02:43:36;17.17;;;5.40;;
71435;SDS011;59251;51.326;12.370;2022-10-31T02:49:12;11.90;;;5.03;;
71435;SDS011;59251;51.326;12.370;2022-10-31T02:52:00;15.13;;;6.20;;
71435;SDS011;59251;51.326;12.370;2022-10-31T02:54:26;14.83;;;5.73;;
71435;SDS011;59251;51.326;12.370;2022-10-31T02:56:54;13.20;;;5.13;;
71435;SDS011;59251;51.326;12.370;2022-10-31T02:59:28;13.60;;;6.18;;
71435;SDS011;59251;51.326;12.370;2022-10-31T03:12:49;15.38;;;5.40;;
71435;SDS011;59251;51.326;12.370;2022-10-31T03:15:30;12.40;;;4.90;;
71435;SDS011;59251;51.326;12.370;2022-10-31T03:18:00;14.32;;;5.82;;
71435;SDS011;59251;51.326;12.370;2022-10-31T03:20:41;14.95;;;5.40;;
71435;SDS011;59251;51.326;12.370;2022-10-31T03:23:12;15.55;;;5.35;;
71435;SDS011;59251;51.326;12.370;2022-10-31T03:25:40;14.07;;;5.25;;
71435;SDS011;59251;51.326;12.370;2022-10-31T03:28:07;14.65;;;5.72;;
71435;SDS011;59251;51.326;12.370;2022-10-31T03:30:35;14.38;;;5.60;;
71435;SDS011;59251;51.326;12.370;2022-10-31T03:33:04;17.17;;;5.18;;
71435;SDS011;59251;51.326;12.370;2022-10-31T03:35:35;12.35;;;5.40;;
71435;SDS011;59251;51.326;12.370;2022-10-31T03:38:03;12.35;;;5.10;;
71435;SDS011;59251;51.326;12.370;2022-10-31T03:40:30;11.38;;;5.13;;
71435;SDS011;59251;51.326;12.370;2022-10-31T03:42:58;14.07;;;5.68;;
71435;SDS011;59251;51.326;12.370;2022-10-31T03:45:30;13.98;;;5.30;;
71435;SDS011;59251;51.326;12.370;2022-10-31T03:47:56;13.55;;;5.65;;
71435;SDS011;59251;51.326;12.370;2022-10-31T03:50:24;15.43;;;5.40;;
71435;SDS011;59251;51.326;12.370;2022-10-31T03:52:58;15.80;;;5.72;;
71435;SDS011;59251;51.326;12.370;2022-10-31T03:55:37;17.55;;;5.63;;
71435;SDS011;59251;51.326;12.370;2022-10-31T03:58:03;12.57;;;5.32;;
71435;SDS011;59251;51.326;12.370;2022-10-31T04:00:34;14.95;;;6.40;;
71435;SDS011;59251;51.326;12.370;2022-10-31T04:03:44;11.75;;;5.38;;
71435;SDS011;59251;51.326;12.370;2022-10-31T04:05:52;15.90;;;5.38;;
71435;SDS011;59251;51.326;12.370;2022-10-31T04:08:23;13.77;;;5.25;;
71435;SDS011;59251;51.326;12.370;2022-10-31T04:10:52;13.20;;;4.95;;
71435;SDS011;59251;51.326;12.370;2022-10-31T04:13:23;13.98;;;6.03;;
71435;SDS011;59251;51.326;12.370;2022-10-31T04:15:51;16.85;;;5.47;;
71435;SDS011;59251;51.326;12.370;2022-10-31T04:18:19;12.93;;;5.40;;
71435;SDS011;59251;51.326;12.370;2022-10-31T04:20:44;12.70;;;5.80;;
71435;SDS011;59251;51.326;12.370;2022-10-31T04:23:20;14.82;;;5.22;;
71435;SDS011;59251;51.326;12.370;2022-10-31T04:25:49;12.93;;;5.50;;
71435;SDS011;59251;51.326;12.370;2022-10-31T04:28:14;13.53;;;5.43;;
71435;SDS011;59251;51.326;12.370;2022-10-31T04:30:39;12.38;;;5.28;;
71435;SDS011;59251;51.326;12.370;2022-10-31T04:33:05;13.60;;;5.28;;
71435;SDS011;59251;51.326;12.370;2022-10-31T04:35:30;15.20;;;5.20;;
71435;SDS011;59251;51.326;12.370;2022-10-31T04:37:56;17.10;;;5.47;;
71435;SDS011;59251;51.326;12.370;2022-10-31T04:40:21;13.83;;;5.83;;
71435;SDS011;59251;51.326;12.370;2022-10-31T04:42:47;12.18;;;5.80;;
71435;SDS011;59251;51.326;12.370;2022-10-31T04:45:12;14.98;;;5.43;;
71435;SDS011;59251;51.326;12.370;2022-10-31T04:47:37;13.57;;;5.60;;
71435;SDS011;59251;51.326;12.370;2022-10-31T04:50:03;12.00;;;5.50;;
71435;SDS011;59251;51.326;12.370;2022-10-31T04:52:28;14.43;;;5.47;;
71435;SDS011;59251;51.326;12.370;2022-10-31T04:54:54;15.30;;;5.63;;
71435;SDS011;59251;51.326;12.370;2022-10-31T04:57:19;12.13;;;4.83;;
71435;SDS011;59251;51.326;12.370;2022-10-31T04:59:44;15.40;;;5.87;;
71435;SDS011;59251;51.326;12.370;2022-10-31T05:02:10;11.17;;;4.90;;
71435;SDS011;59251;51.326;12.370;2022-10-31T05:04:35;15.17;;;5.30;;
71435;SDS011;59251;51.326;12.370;2022-10-31T05:07:00;14.57;;;5.70;;
71435;SDS011;59251;51.326;12.370;2022-10-31T05:09:26;17.20;;;5.40;;
71435;SDS011;59251;51.326;12.370;2022-10-31T05:11:51;15.63;;;5.65;;
71435;SDS011;59251;51.326;12.370;2022-10-31T05:14:16;17.03;;;6.00;;
71435;SDS011;59251;51.326;12.370;2022-10-31T05:16:42;15.57;;;6.20;;
71435;SDS011;59251;51.326;12.370;2022-10-31T05:19:07;12.50;;;5.40;;
71435;SDS011;59251;51.326;12.370;2022-10-31T05:21:32;16.17;;;5.63;;
71435;SDS011;59251;51.326;12.370;2022-10-31T05:23:58;12.00;;;5.63;;
71435;SDS011;59251;51.326;12.370;2022-10-31T05:26:23;13.60;;;5.60;;
71435;SDS011;59251;51.326;12.370;2022-10-31T05:28:49;17.05;;;5.32;;
71435;SDS011;59251;51.326;12.370;2022-10-31T05:31:14;14.23;;;5.30;;
71435;SDS011;59251;51.326;12.370;2022-10-31T05:33:40;15.13;;;5.77;;
71435;SDS011;59251;51.326;12.370;2022-10-31T05:36:05;13.97;;;5.80;;
71435;SDS011;59251;51.326;12.370;2022-10-31T05:38:30;12.13;;;5.47;;
71435;SDS011;59251;51.326;12.370;2022-10-31T05:40:56;14.05;;;6.03;;
71435;SDS011;59251;51.326;12.370;2022-10-31T05:43:27;12.93;;;5.37;;
71435;SDS011;59251;51.326;12.370;2022-10-31T05:45:54;14.00;;;5.25;;
71435;SDS011;59251;51.326;12.370;2022-10-31T05:48:20;20.17;;;6.40;;
71435;SDS011;59251;51.326;12.370;2022-10-31T05:50:46;12.47;;;5.57;;
71435;SDS011;59251;51.326;12.370;2022-10-31T05:53:13;15.35;;;6.68;;
71435;SDS011;59251;51.326;12.370;2022-10-31T05:55:38;17.83;;;6.93;;
71435;SDS011;59251;51.326;12.370;2022-10-31T05:58:05;12.30;;;5.60;;
71435;SDS011;59251;51.326;12.370;2022-10-31T06:00:31;13.20;;;5.17;;
71435;SDS011;59251;51.326;12.370;2022-10-31T06:02:57;15.48;;;5.93;;
71435;SDS011;59251;51.326;12.370;2022-10-31T06:05:27;13.63;;;5.80;;
71435;SDS011;59251;51.326;12.370;2022-10-31T06:07:52;15.27;;;6.15;;
71435;SDS011;59251;51.326;12.370;2022-10-31T06:10:18;13.05;;;5.72;;
71435;SDS011;59251;51.326;12.370;2022-10-31T06:12:45;13.00;;;5.70;;
71435;SDS011;59251;51.326;12.370;2022-10-31T06:15:11;14.05;;;6.13;;
71435;SDS011;59251;51.326;12.370;2022-10-31T06:17:36;12.97;;;6.10;;
71435;SDS011;59251;51.326;12.370;2022-10-31T06:20:02;14.30;;;6.37;;
71435;SDS011;59251;51.326;12.370;2022-10-31T06:22:29;14.73;;;6.03;;
71435;SDS011;59251;51.326;12.370;2022-10-31T06:24:54;15.43;;;5.70;;
71435;SDS011;59251;51.326;12.370;2022-10-31T06:27:19;14.30;;;6.30;;
71435;SDS011;59251;51.326;12.370;2022-10-31T06:29:45;14.18;;;5.47;;
71435;SDS011;59251;51.326;12.370;2022-10-31T06:32:11;14.93;;;5.28;;
71435;SDS011;59251;51.326;12.370;2022-10-31T06:34:37;12.57;;;5.32;;
71435;SDS011;59251;51.326;12.370;2022-10-31T06:37:03;13.43;;;5.95;;
71435;SDS011;59251;51.326;12.370;2022-10-31T06:39:31;12.00;;;5.60;;
71435;SDS011;59251;51.326;12.370;2022-10-31T06:41:56;15.20;;;6.25;;
71435;SDS011;59251;51.326;12.370;2022-10-31T06:44:22;13.20;;;5.63;;
71435;SDS011;59251;51.326;12.370;2022-10-31T06:46:47;14.93;;;6.07;;
71435;SDS011;59251;51.326;12.370;2022-10-31T06:49:12;14.13;;;5.47;;
71435;SDS011;59251;51.326;12.370;2022-10-31T06:51:38;12.80;;;5.60;;
71435;SDS011;59251;51.326;12.370;2022-10-31T06:54:03;12.52;;;5.88;;
71435;SDS011;59251;51.326;12.370;2022-10-31T06:56:29;12.43;;;5.53;;
71435;SDS011;59251;51.326;12.370;2022-10-31T06:58:54;13.13;;;5.77;;
71435;SDS011;59251;51.326;12.370;2022-10-31T07:01:20;13.77;;;5.70;;
71435;SDS011;59251;51.326;12.370;2022-10-31T07:03:45;15.67;;;5.93;;
71435;SDS011;59251;51.326;12.370;2022-10-31T07:06:10;15.23;;;6.07;;
71435;SDS011;59251;51.326;12.370;2022-10-31T07:08:35;13.20;;;5.97;;
71435;SDS011;59251;51.326;12.370;2022-10-31T07:11:01;14.38;;;5.90;;
71435;SDS011;59251;51.326;12.370;2022-10-31T07:13:26;20.03;;;5.63;;
71435;SDS011;59251;51.326;12.370;2022-10-31T07:15:52;13.77;;;5.83;;
71435;SDS011;59251;51.326;12.370;2022-10-31T07:18:19;21.55;;;6.68;;
71435;SDS011;59251;51.326;12.370;2022-10-31T07:20:46;14.10;;;6.22;;
71435;SDS011;59251;51.326;12.370;2022-10-31T07:23:12;14.77;;;5.75;;
71435;SDS011;59251;51.326;12.370;2022-10-31T07:25:40;17.80;;;6.70;;
71435;SDS011;59251;51.326;12.370;2022-10-31T07:28:06;12.80;;;6.10;;
71435;SDS011;59251;51.326;12.370;2022-10-31T07:30:32;14.67;;;6.27;;
71435;SDS011;59251;51.326;12.370;2022-10-31T07:32:57;13.45;;;5.75;;
71435;SDS011;59251;51.326;12.370;2022-10-31T07:35:24;14.70;;;5.60;;
71435;SDS011;59251;51.326;12.370;2022-10-31T07:37:52;13.18;;;5.72;;
71435;SDS011;59251;51.326;12.370;2022-10-31T07:40:18;14.37;;;5.53;;
71435;SDS011;59251;51.326;12.370;2022-10-31T07:42:45;15.70;;;6.05;;
71435;SDS011;59251;51.326;12.370;2022-10-31T07:45:13;13.88;;;5.50;;
71435;SDS011;59251;51.326;12.370;2022-10-31T07:47:43;15.27;;;5.60;;
71435;SDS011;59251;51.326;12.370;2022-10-31T07:50:12;10.87;;;5.47;;
71435;SDS011;59251;51.326;12.370;2022-10-31T07:52:40;13.25;;;5.57;;
71435;SDS011;59251;51.326;12.370;2022-10-31T07:55:06;13.80;;;5.13;;
71435;SDS011;59251;51.326;12.370;2022-10-31T07:57:32;13.52;;;5.97;;
71435;SDS011;59251;51.326;12.370;2022-10-31T07:59:57;12.53;;;5.80;;
71435;SDS011;59251;51.326;12.370;2022-10-31T08:02:23;16.30;;;4.95;;
71435;SDS011;59251;51.326;12.370;2022-10-31T08:04:49;11.30;;;5.07;;
71435;SDS011;59251;51.326;12.370;2022-10-31T08:07:14;13.17;;;5.57;;
71435;SDS011;59251;51.326;12.370;2022-10-31T08:09:40;11.82;;;5.10;;
71435;SDS011;59251;51.326;12.370;2022-10-31T08:12:05;11.53;;;4.80;;
71435;SDS011;59251;51.326;12.370;2022-10-31T08:14:30;12.60;;;4.90;;
71435;SDS011;59251;51.326;12.370;2022-10-31T08:16:56;10.60;;;4.77;;
71435;SDS011;59251;51.326;12.370;2022-10-31T08:19:21;14.07;;;5.10;;
71435;SDS011;59251;51.326;12.370;2022-10-31T08:21:49;15.55;;;5.60;;
71435;SDS011;59251;51.326;12.370;2022-10-31T08:24:15;14.37;;;5.37;;
71435;SDS011;59251;51.326;12.370;2022-10-31T08:26:41;15.60;;;5.38;;
71435;SDS011;59251;51.326;12.370;2022-10-31T08:29:06;11.73;;;5.00;;
71435;SDS011;59251;51.326;12.370;2022-10-31T08:31:33;12.73;;;5.50;;
71435;SDS011;59251;51.326;12.370;2022-10-31T08:33:58;13.77;;;5.00;;
71435;SDS011;59251;51.326;12.370;2022-10-31T08:36:23;16.80;;;5.27;;
71435;SDS011;59251;51.326;12.370;2022-10-31T08:38:49;16.10;;;5.40;;
71435;SDS011;59251;51.326;12.370;2022-10-31T08:41:14;10.77;;;4.93;;
71435;SDS011;59251;51.326;12.370;2022-10-31T08:43:40;14.33;;;5.67;;
71435;SDS011;59251;51.326;12.370;2022-10-31T08:46:05;13.70;;;5.30;;
71435;SDS011;59251;51.326;12.370;2022-10-31T08:48:31;14.70;;;5.93;;
71435;SDS011;59251;51.326;12.370;2022-10-31T08:50:57;14.35;;;6.20;;
71435;SDS011;59251;51.326;12.370;2022-10-31T08:53:23;15.50;;;6.05;;
71435;SDS011;59251;51.326;12.370;2022-10-31T08:55:50;15.70;;;5.90;;
71435;SDS011;59251;51.326;12.370;2022-10-31T08:58:16;16.97;;;6.27;;
71435;SDS011;59251;51.326;12.370;2022-10-31T09:00:44;16.55;;;6.25;;
71435;SDS011;59251;51.326;12.370;2022-10-31T09:03:11;19.10;;;6.97;;
71435;SDS011;59251;51.326;12.370;2022-10-31T09:05:38;13.15;;;6.25;;
71435;SDS011;59251;51.326;12.370;2022-10-31T09:08:04;14.63;;;6.82;;
71435;SDS011;59251;51.326;12.370;2022-10-31T09:10:31;18.00;;;6.70;;
71435;SDS011;59251;51.326;12.370;2022-10-31T09:13:02;16.53;;;7.00;;
71435;SDS011;59251;51.326;12.370;2022-10-31T09:15:31;21.00;;;8.20;;
71435;SDS011;59251;51.326;12.370;2022-10-31T09:17:58;23.75;;;9.63;;
71435;SDS011;59251;51.326;12.370;2022-10-31T09:20:24;24.93;;;10.17;;
71435;SDS011;59251;51.326;12.370;2022-10-31T09:23:03;26.47;;;11.33;;
71435;SDS011;59251;51.326;12.370;2022-10-31T09:25:31;28.48;;;11.88;;
71435;SDS011;59251;51.326;12.370;2022-10-31T09:27:58;28.50;;;10.87;;
71435;SDS011;59251;51.326;12.370;2022-10-31T09:30:24;27.42;;;12.10;;
71435;SDS011;59251;51.326;12.370;2022-10-31T09:33:01;30.73;;;12.60;;
71435;SDS011;59251;51.326;12.370;2022-10-31T09:35:28;36.50;;;14.55;;
71435;SDS011;59251;51.326;12.370;2022-10-31T09:38:01;29.40;;;14.13;;
71435;SDS011;59251;51.326;12.370;2022-10-31T09:40:34;30.97;;;13.13;;
71435;SDS011;59251;51.326;12.370;2022-10-31T09:45:54;34.00;;;13.25;;
71435;SDS011;59251;51.326;12.370;2022-10-31T09:51:30;31.52;;;13.15;;
71435;SDS011;59251;51.326;12.370;2022-10-31T09:57:05;31.92;;;12.93;;
71435;SDS011;59251;51.326;12.370;2022-10-31T09:59:38;29.10;;;13.10;;
71435;SDS011;59251;51.326;12.370;2022-10-31T10:02:23;34.72;;;13.80;;
71435;SDS011;59251;51.326;12.370;2022-10-31T10:05:00;31.65;;;13.88;;
71435;SDS011;59251;51.326;12.370;2022-10-31T10:09:57;33.45;;;15.20;;
71435;SDS011;59251;51.326;12.370;2022-10-31T10:17:42;39.95;;;16.05;;
71435;SDS011;59251;51.326;12.370;2022-10-31T10:25:35;35.90;;;15.95;;
71435;SDS011;59251;51.326;12.370;2022-10-31T10:31:10;38.53;;;16.70;;
71435;SDS011;59251;51.326;12.370;2022-10-31T10:33:55;32.73;;;14.77;;
71435;SDS011;59251;51.326;12.370;2022-10-31T10:36:28;38.92;;;16.02;;
71435;SDS011;59251;51.326;12.370;2022-10-31T10:39:17;34.28;;;15.95;;
71435;SDS011;59251;51.326;12.370;2022-10-31T10:41:41;38.40;;;17.35;;
71435;SDS011;59251;51.326;12.370;2022-10-31T10:44:10;41.25;;;18.02;;
71435;SDS011;59251;51.326;12.370;2022-10-31T10:46:42;46.03;;;17.97;;
71435;SDS011;59251;51.326;12.370;2022-10-31T10:49:44;40.45;;;18.13;;
71435;SDS011;59251;51.326;12.370;2022-10-31T10:52:29;45.77;;;20.23;;
71435;SDS011;59251;51.326;12.370;2022-10-31T10:55:06;49.83;;;21.45;;
71435;SDS011;59251;51.326;12.370;2022-10-31T11:00:18;49.17;;;20.92;;
71435;SDS011;59251;51.326;12.370;2022-10-31T11:02:47;47.88;;;20.23;;
71435;SDS011;59251;51.326;12.370;2022-10-31T11:05:18;47.17;;;19.63;;
71435;SDS011;59251;51.326;12.370;2022-10-31T11:07:48;52.58;;;21.67;;
71435;SDS011;59251;51.326;12.370;2022-10-31T11:10:14;48.90;;;20.40;;
71435;SDS011;59251;51.326;12.370;2022-10-31T11:12:41;41.15;;;20.60;;
71435;SDS011;59251;51.326;12.370;2022-10-31T11:15:18;42.30;;;19.33;;
71435;SDS011;59251;51.326;12.370;2022-10-31T11:17:51;50.42;;;20.77;;
71435;SDS011;59251;51.326;12.370;2022-10-31T11:22:44;40.13;;;19.83;;
71435;SDS011;59251;51.326;12.370;2022-10-31T11:28:04;40.90;;;19.27;;
71435;SDS011;59251;51.326;12.370;2022-10-31T11:30:42;42.47;;;19.27;;
71435;SDS011;59251;51.326;12.370;2022-10-31T11:33:21;38.75;;;18.13;;
71435;SDS011;59251;51.326;12.370;2022-10-31T11:35:48;39.40;;;17.73;;
71435;SDS011;59251;51.326;12.370;2022-10-31T11:38:15;41.80;;;19.25;;
71435;SDS011;59251;51.326;12.370;2022-10-31T11:40:57;43.58;;;19.55;;
71435;SDS011;59251;51.326;12.370;2022-10-31T11:43:25;40.25;;;18.83;;
71435;SDS011;59251;51.326;12.370;2022-10-31T11:45:52;38.55;;;17.20;;
71435;SDS011;59251;51.326;12.370;2022-10-31T11:48:21;36.37;;;17.23;;
71435;SDS011;59251;51.326;12.370;2022-10-31T11:50:52;43.97;;;19.02;;
71435;SDS011;59251;51.326;12.370;2022-10-31T11:56:03;38.95;;;17.98;;
71435;SDS011;59251;51.326;12.370;2022-10-31T11:58:29;38.03;;;18.47;;
71435;SDS011;59251;51.326;12.370;2022-10-31T12:00:55;38.92;;;18.50;;
71435;SDS011;59251;51.326;12.370;2022-10-31T12:05:48;35.70;;;17.47;;
71435;SDS011;59251;51.326;12.370;2022-10-31T12:08:18;33.92;;;17.17;;
71435;SDS011;59251;51.326;12.370;2022-10-31T12:18:53;33.13;;;16.88;;
71435;SDS011;59251;51.326;12.370;2022-10-31T12:32:56;40.00;;;17.85;;
71435;SDS011;59251;51.326;12.370;2022-10-31T12:43:28;41.53;;;19.67;;
71435;SDS011;59251;51.326;12.370;2022-10-31T12:46:02;38.38;;;18.55;;
71435;SDS011;59251;51.326;12.370;2022-10-31T12:59:17;36.22;;;17.27;;
71435;SDS011;59251;51.326;12.370;2022-10-31T13:01:49;37.47;;;17.67;;
71435;SDS011;59251;51.326;12.370;2022-10-31T13:07:05;33.20;;;17.00;;
71435;SDS011;59251;51.326;12.370;2022-10-31T13:09:38;34.23;;;16.77;;
71435;SDS011;59251;51.326;12.370;2022-10-31T13:12:11;38.53;;;16.83;;
71435;SDS011;59251;51.326;12.370;2022-10-31T13:14:44;34.63;;;16.92;;
71435;SDS011;59251;51.326;12.370;2022-10-31T13:17:33;40.08;;;17.05;;
71435;SDS011;59251;51.326;12.370;2022-10-31T13:22:51;38.73;;;17.50;;
71435;SDS011;59251;51.326;12.370;2022-10-31T13:25:27;39.10;;;18.40;;
71435;SDS011;59251;51.326;12.370;2022-10-31T13:30:28;34.90;;;16.95;;
71435;SDS011;59251;51.326;12.370;2022-10-31T13:41:21;36.03;;;16.85;;
71435;SDS011;59251;51.326;12.370;2022-10-31T13:48:57;34.00;;;15.10;;
71435;SDS011;59251;51.326;12.370;2022-10-31T13:51:27;35.37;;;15.53;;
71435;SDS011;59251;51.326;12.370;2022-10-31T13:53:57;30.60;;;14.25;;
71435;SDS011;59251;51.326;12.370;2022-10-31T13:56:31;36.67;;;16.02;;
71435;SDS011;59251;51.326;12.370;2022-10-31T14:01:25;34.47;;;15.10;;
71435;SDS011;59251;51.326;12.370;2022-10-31T14:03:58;28.70;;;14.27;;
71435;SDS011;59251;51.326;12.370;2022-10-31T14:09:18;28.30;;;13.63;;
71435;SDS011;59251;51.326;12.370;2022-10-31T14:11:50;35.83;;;13.67;;
71435;SDS011;59251;51.326;12.370;2022-10-31T14:14:16;30.38;;;13.48;;
71435;SDS011;59251;51.326;12.370;2022-10-31T14:16:43;32.55;;;12.65;;
71435;SDS011;59251;51.326;12.370;2022-10-31T14:19:17;31.33;;;14.27;;
71435;SDS011;59251;51.326;12.370;2022-10-31T14:21:45;28.05;;;13.90;;
71435;SDS011;59251;51.326;12.370;2022-10-31T14:24:16;30.00;;;13.77;;
71435;SDS011;59251;51.326;12.370;2022-10-31T14:29:43;30.33;;;13.63;;
71435;SDS011;59251;51.326;12.370;2022-10-31T14:34:42;29.50;;;14.38;;
71435;SDS011;59251;51.326;12.370;2022-10-31T14:40:39;33.90;;;16.70;;
71435;SDS011;59251;51.326;12.370;2022-10-31T14:49:31;34.80;;;16.35;;
71435;SDS011;59251;51.326;12.370;2022-10-31T14:52:05;37.25;;;17.77;;
71435;SDS011;59251;51.326;12.370;2022-10-31T14:54:37;37.45;;;17.95;;
71435;SDS011;59251;51.326;12.370;2022-10-31T14:57:06;39.17;;;18.70;;
71435;SDS011;59251;51.326;12.370;2022-10-31T14:59:38;37.60;;;18.27;;
71435;SDS011;59251;51.326;12.370;2022-10-31T15:04:36;42.38;;;20.48;;
71435;SDS011;59251;51.326;12.370;2022-10-31T15:07:06;41.53;;;18.95;;
71435;SDS011;59251;51.326;12.370;2022-10-31T15:09:37;43.83;;;19.63;;
71435;SDS011;59251;51.326;12.370;2022-10-31T15:14:49;44.42;;;19.77;;
71435;SDS011;59251;51.326;12.370;2022-10-31T15:17:14;40.27;;;18.73;;
71435;SDS011;59251;51.326;12.370;2022-10-31T15:19:40;41.15;;;19.20;;
71435;SDS011;59251;51.326;12.370;2022-10-31T15:22:07;40.53;;;18.83;;
71435;SDS011;59251;51.326;12.370;2022-10-31T15:24:39;40.72;;;20.02;;
71435;SDS011;59251;51.326;12.370;2022-10-31T15:27:04;41.43;;;19.63;;
71435;SDS011;59251;51.326;12.370;2022-10-31T15:29:30;45.78;;;21.02;;
71435;SDS011;59251;51.326;12.370;2022-10-31T15:31:59;50.77;;;22.70;;
71435;SDS011;59251;51.326;12.370;2022-10-31T15:34:27;43.78;;;20.73;;
71435;SDS011;59251;51.326;12.370;2022-10-31T15:36:58;50.90;;;22.05;;
71435;SDS011;59251;51.326;12.370;2022-10-31T15:39:23;46.50;;;20.57;;
71435;SDS011;59251;51.326;12.370;2022-10-31T15:41:50;52.27;;;21.47;;
71435;SDS011;59251;51.326;12.370;2022-10-31T15:44:21;50.70;;;21.73;;
71435;SDS011;59251;51.326;12.370;2022-10-31T15:46:55;54.13;;;23.48;;
71435;SDS011;59251;51.326;12.370;2022-10-31T15:49:54;58.97;;;23.73;;
71435;SDS011;59251;51.326;12.370;2022-10-31T15:52:25;56.03;;;23.48;;
71435;SDS011;59251;51.326;12.370;2022-10-31T15:54:58;53.47;;;24.85;;
71435;SDS011;59251;51.326;12.370;2022-10-31T15:57:49;54.47;;;24.15;;
71435;SDS011;59251;51.326;12.370;2022-10-31T16:02:50;54.80;;;24.97;;
71435;SDS011;59251;51.326;12.370;2022-10-31T16:05:43;55.05;;;25.92;;
71435;SDS011;59251;51.326;12.370;2022-10-31T16:10:56;55.30;;;24.75;;
71435;SDS011;59251;51.326;12.370;2022-10-31T16:13:41;56.97;;;24.48;;
71435;SDS011;59251;51.326;12.370;2022-10-31T16:16:42;56.37;;;26.13;;
71435;SDS011;59251;51.326;12.370;2022-10-31T16:19:15;56.10;;;24.02;;
71435;SDS011;59251;51.326;12.370;2022-10-31T16:22:08;60.53;;;26.05;;
71435;SDS011;59251;51.326;12.370;2022-10-31T16:24:59;59.17;;;25.88;;
71435;SDS011;59251;51.326;12.370;2022-10-31T16:27:28;63.20;;;26.13;;
71435;SDS011;59251;51.326;12.370;2022-10-31T16:29:56;55.37;;;24.90;;
71435;SDS011;59251;51.326;12.370;2022-10-31T16:33:19;59.42;;;26.13;;
71435;SDS011;59251;51.326;12.370;2022-10-31T16:37:43;60.63;;;28.50;;
71435;SDS011;59251;51.326;12.370;2022-10-31T16:40:12;60.80;;;27.60;;
71435;SDS011;59251;51.326;12.370;2022-10-31T16:42:42;60.03;;;27.17;;
71435;SDS011;59251;51.326;12.370;2022-10-31T16:45:13;57.67;;;26.88;;
71435;SDS011;59251;51.326;12.370;2022-10-31T16:47:43;56.17;;;26.98;;
71435;SDS011;59251;51.326;12.370;2022-10-31T16:50:15;61.97;;;27.30;;
71435;SDS011;59251;51.326;12.370;2022-10-31T16:52:43;54.03;;;26.65;;
71435;SDS011;59251;51.326;12.370;2022-10-31T16:55:13;60.85;;;28.95;;
71435;SDS011;59251;51.326;12.370;2022-10-31T16:57:40;65.30;;;28.50;;
71435;SDS011;59251;51.326;12.370;2022-10-31T17:00:12;56.17;;;26.05;;
71435;SDS011;59251;51.326;12.370;2022-10-31T17:02:42;64.80;;;29.17;;
71435;SDS011;59251;51.326;12.370;2022-10-31T17:05:12;65.20;;;27.63;;
71435;SDS011;59251;51.326;12.370;2022-10-31T17:07:39;57.80;;;27.95;;
71435;SDS011;59251;51.326;12.370;2022-10-31T17:10:04;58.40;;;26.92;;
71435;SDS011;59251;51.326;12.370;2022-10-31T17:12:30;60.87;;;26.60;;
71435;SDS011;59251;51.326;12.370;2022-10-31T17:14:56;57.90;;;28.23;;